Aeroporto :
LOGIN :

Iscrizione | Disclaimer

   EN    FR    IT 

 










Sommario :    VFR   VFR Marginale   IFR   IFR Intensivo   IFR Molto Intensivo
Visibilità : 
Base nubi : 
>= 8 km
>= 3000ft
5 / 8 km
1000 / 3000 ft
1500m / 5 km
500 / 1000 ft
800 / 1500m
200 / 500 ft
< 800m
< 200 ft
Simboli :   Temporali  Nebbia  Neve Forte  Precipitazioni Forti  Vento > 20 kt
SIGMETs :   Varie  Temporali  Ghiacco  Turbolenza  Onda orograficha  Ceneri Vulcaniche






- Altitudine del aeroporto : 388 ft
- Codice IATA : QYR


LFQB - Troyes Barberey

ULTIMO METAR :
  • 150730Z AUTO VRB03KT 4500 -RA BR SCT006/// BKN014/// OVC019/// ///TCU 05/04 Q0997

METARs OBSOLETI :
  • 150700Z AUTO VRB02KT 4900 -RA BR BKN005/// BKN013/// OVC018/// ///TCU 05/04 Q0997
  • 150630Z AUTO 32006KT 5000 -RA BR FEW006/// SCT011/// OVC018/// ///CB 05/04 Q0996
  • 150600Z AUTO 33005KT 5000 RA BR SCT005/// BKN010/// OVC016/// ///CB 05/04 Q0996
  • 150530Z AUTO 32006KT 5000 -RA BR BKN006/// OVC013/// ///CB 05/04 Q0996
  • 150500Z AUTO 32006KT 5000 -RA BR OVC005/// ///CB 05/04 Q0996

TAF N/A



MetMap, La meteo Aeronautica in un colpo d'occhio ! - Copyright ORBIFLY Dicembre 2007 - Disclaimer

ORBIFLY MET'MAP TEAM :

Programmazione e sviluppo : Alexandra Zaïnal
Concezione e sviluppo : Baudouin d'Aumeries
Co-Programmazione e sviluppo : Marc-Olivier Méhu
Supporto tecnico e logistico : Manuel Goepfert
Aiuto per la traduzione : Arnaldo La Scala

Contatto : metmap@orbifly.com




FONTI E CREDITI :

   NOAA